createdAt,value
2018-03-08T00:00:53.492Z,12.50
2018-03-08T00:01:53.504Z,13.90
2018-03-08T00:02:53.524Z,12.00
2018-03-08T00:03:53.547Z,12.30
2018-03-08T00:04:53.565Z,13.50
2018-03-08T00:05:53.585Z,12.50
2018-03-08T00:06:53.600Z,12.10
2018-03-08T00:07:53.623Z,14.30
2018-03-08T00:08:53.636Z,14.50
2018-03-08T00:09:53.659Z,14.90
2018-03-08T00:10:53.671Z,13.50
2018-03-08T00:11:53.696Z,13.70
2018-03-08T00:12:53.709Z,13.90
2018-03-08T00:13:53.733Z,13.90
2018-03-08T00:14:53.752Z,14.40
2018-03-08T00:15:53.770Z,14.10
2018-03-08T00:16:53.789Z,13.70
2018-03-08T00:17:53.806Z,15.20
2018-03-08T00:18:53.825Z,14.30
2018-03-08T00:19:53.846Z,13.90
2018-03-08T00:20:53.864Z,15.50
2018-03-08T00:21:53.882Z,15.10
2018-03-08T00:22:53.900Z,16.40
2018-03-08T00:23:53.917Z,14.80
2018-03-08T00:24:53.937Z,17.00
2018-03-08T00:25:53.959Z,16.80
2018-03-08T00:26:53.977Z,13.30
2018-03-08T00:27:53.993Z,15.00
2018-03-08T00:28:54.012Z,15.90
2018-03-08T00:29:54.029Z,17.20
2018-03-08T00:30:54.048Z,13.70
2018-03-08T00:31:54.066Z,12.10
2018-03-08T00:32:54.084Z,13.30
2018-03-08T00:33:54.102Z,14.10
2018-03-08T00:34:54.121Z,16.20
2018-03-08T00:35:54.139Z,14.40
2018-03-08T00:36:54.158Z,16.20
2018-03-08T00:37:54.176Z,15.10
2018-03-08T00:38:54.195Z,13.70
2018-03-08T00:39:54.214Z,14.50
2018-03-08T00:40:54.231Z,14.50
2018-03-08T00:41:54.250Z,12.90
2018-03-08T00:42:54.269Z,13.70
2018-03-08T00:43:54.293Z,14.00
2018-03-08T00:44:54.305Z,13.50
2018-03-08T00:45:54.323Z,14.20
2018-03-08T00:46:54.343Z,14.00
2018-03-08T00:47:54.361Z,14.30
2018-03-08T00:48:54.379Z,16.80
2018-03-08T00:49:54.396Z,16.70
2018-03-08T00:50:54.415Z,16.00
2018-03-08T00:51:54.434Z,14.60
2018-03-08T00:52:54.453Z,15.40
2018-03-08T00:53:54.470Z,13.20
2018-03-08T00:54:54.490Z,13.10
2018-03-08T00:55:54.507Z,14.40
2018-03-08T00:56:54.526Z,14.40
2018-03-08T00:57:54.550Z,15.00
2018-03-08T00:58:54.562Z,15.10
2018-03-08T00:59:54.581Z,15.60
2018-03-08T01:00:54.600Z,15.10
2018-03-08T01:01:54.618Z,13.70
2018-03-08T01:02:54.634Z,13.00
2018-03-08T01:03:54.654Z,12.50
2018-03-08T01:04:54.673Z,15.40
2018-03-08T01:05:54.690Z,14.00
2018-03-08T01:06:54.713Z,12.20
2018-03-08T01:07:54.727Z,12.90
2018-03-08T01:08:54.747Z,15.80
2018-03-08T01:09:54.764Z,14.30
2018-03-08T01:10:54.785Z,15.20
2018-03-08T01:11:54.794Z,17.10
2018-03-08T01:12:54.813Z,15.70
2018-03-08T01:13:54.830Z,17.80
2018-03-08T01:14:54.849Z,16.20
2018-03-08T01:15:54.867Z,17.60
2018-03-08T01:16:54.886Z,17.20
2018-03-08T01:17:54.906Z,15.00
2018-03-08T01:18:54.922Z,18.00
2018-03-08T01:19:54.939Z,15.30
2018-03-08T01:20:54.959Z,17.50
2018-03-08T01:21:54.976Z,17.50
2018-03-08T01:22:54.995Z,21.20
2018-03-08T01:23:55.014Z,19.50
2018-03-08T01:24:55.032Z,19.10
2018-03-08T01:25:55.049Z,22.10
2018-03-08T01:26:55.068Z,21.80
2018-03-08T01:27:55.087Z,20.40
2018-03-08T01:28:55.106Z,18.80
2018-03-08T01:29:55.122Z,20.40
2018-03-08T01:30:55.140Z,18.80
2018-03-08T01:31:55.159Z,17.70
2018-03-08T01:32:55.178Z,18.60
2018-03-08T01:33:55.196Z,21.10
2018-03-08T01:34:55.213Z,19.90
2018-03-08T01:35:55.233Z,19.30
2018-03-08T01:36:55.250Z,19.70
2018-03-08T01:37:55.269Z,19.70
2018-03-08T01:38:55.287Z,20.00
2018-03-08T01:39:55.306Z,17.00
2018-03-08T01:40:55.324Z,20.20
2018-03-08T01:41:55.341Z,17.90
2018-03-08T01:42:55.358Z,18.50
2018-03-08T01:43:55.378Z,21.20
2018-03-08T01:44:55.401Z,19.60
2018-03-08T01:45:55.414Z,17.90
2018-03-08T01:46:55.434Z,18.40
2018-03-08T01:47:55.452Z,18.60
2018-03-08T01:48:55.472Z,17.30
2018-03-08T01:49:55.488Z,19.90
2018-03-08T01:50:55.506Z,17.80
2018-03-08T01:51:55.524Z,17.90
2018-03-08T01:52:55.543Z,16.70
2018-03-08T01:53:55.561Z,17.30
2018-03-08T01:54:55.579Z,15.70
2018-03-08T01:55:55.598Z,17.20
2018-03-08T01:56:55.653Z,16.70
2018-03-08T01:57:55.633Z,15.40
2018-03-08T01:58:55.651Z,16.20
2018-03-08T01:59:55.670Z,16.50
2018-03-08T02:00:55.689Z,16.80
2018-03-08T02:01:55.706Z,15.40
2018-03-08T02:02:55.724Z,15.70
2018-03-08T02:03:55.743Z,15.90
2018-03-08T02:04:55.760Z,16.00
2018-03-08T02:05:55.779Z,16.40
2018-03-08T02:06:55.797Z,13.30
2018-03-08T02:07:55.816Z,16.00
2018-03-08T02:08:55.835Z,15.70
2018-03-08T02:09:55.851Z,16.70
2018-03-08T02:10:55.870Z,14.50
2018-03-08T02:11:55.888Z,15.30
2018-03-08T02:12:55.907Z,17.10
2018-03-08T02:13:55.924Z,16.30
2018-03-08T02:14:55.942Z,16.30
2018-03-08T02:15:55.961Z,15.70
2018-03-08T02:16:55.980Z,14.80
2018-03-08T02:17:55.997Z,16.90
2018-03-08T02:18:56.020Z,15.10
2018-03-08T02:19:56.034Z,15.70
2018-03-08T02:20:56.053Z,17.30
2018-03-08T02:21:56.071Z,17.00
2018-03-08T02:22:56.089Z,15.40
2018-03-08T02:23:56.107Z,15.70
2018-03-08T02:24:56.126Z,15.60
2018-03-08T02:25:56.147Z,16.60
2018-03-08T02:26:56.211Z,19.20
2018-03-08T02:27:56.180Z,20.70
2018-03-08T02:28:56.198Z,19.50
2018-03-08T02:29:56.214Z,15.50
2018-03-08T02:30:56.234Z,19.10
2018-03-08T02:31:56.255Z,17.50
2018-03-08T02:32:56.271Z,19.20
2018-03-08T02:33:56.289Z,19.70
2018-03-08T02:34:56.308Z,21.20
2018-03-08T02:35:56.325Z,19.60
2018-03-08T02:36:56.346Z,19.90
2018-03-08T02:37:56.363Z,17.60
2018-03-08T02:38:56.380Z,16.90
2018-03-08T02:39:56.398Z,17.10
2018-03-08T02:40:56.416Z,19.10
2018-03-08T02:41:56.434Z,18.10
2018-03-08T02:42:56.454Z,17.70
2018-03-08T02:43:56.471Z,19.60
2018-03-08T02:44:56.491Z,19.30
2018-03-08T02:45:56.508Z,21.90
2018-03-08T02:46:56.526Z,21.50
2018-03-08T02:47:56.544Z,19.90
2018-03-08T02:48:56.563Z,17.70
2018-03-08T02:49:56.583Z,19.80
2018-03-08T02:50:56.599Z,20.90
2018-03-08T02:51:56.620Z,19.30
2018-03-08T02:52:56.637Z,19.10
2018-03-08T02:53:56.654Z,19.40
2018-03-08T02:54:56.672Z,23.70
2018-03-08T02:55:56.690Z,22.90
2018-03-08T02:56:56.709Z,23.80
2018-03-08T02:57:56.729Z,22.20
2018-03-08T02:58:56.751Z,22.20
2018-03-08T02:59:56.767Z,23.30
2018-03-08T03:00:56.789Z,22.40
2018-03-08T03:01:56.800Z,24.00
2018-03-08T03:02:56.819Z,26.40
2018-03-08T03:03:56.837Z,26.40
2018-03-08T03:04:56.856Z,26.80
2018-03-08T03:05:56.874Z,28.30
2018-03-08T03:06:56.891Z,25.80
2018-03-08T03:07:56.910Z,27.30
2018-03-08T03:08:56.929Z,31.20
2018-03-08T03:09:57.027Z,32.30
2018-03-08T03:10:56.964Z,32.10
2018-03-08T03:11:56.983Z,31.70
2018-03-08T03:12:57.001Z,32.80
2018-03-08T03:13:57.019Z,33.20
2018-03-08T03:14:57.037Z,32.70
2018-03-08T03:15:57.055Z,34.70
2018-03-08T03:16:57.074Z,34.10
2018-03-08T03:17:57.093Z,32.20
2018-03-08T03:18:57.110Z,34.50
2018-03-08T03:19:57.128Z,38.20
2018-03-08T03:20:57.147Z,35.70
2018-03-08T03:21:57.165Z,34.60
2018-03-08T03:22:57.184Z,36.60
2018-03-08T03:23:57.203Z,37.60
2018-03-08T03:24:57.220Z,34.80
2018-03-08T03:25:57.246Z,37.30
2018-03-08T03:26:57.256Z,35.50
2018-03-08T03:27:57.275Z,37.00
2018-03-08T03:28:57.294Z,36.40
2018-03-08T03:29:57.310Z,34.80
2018-03-08T03:30:57.331Z,33.70
2018-03-08T03:31:57.348Z,36.70
2018-03-08T03:32:57.367Z,34.20
2018-03-08T03:33:57.384Z,37.40
2018-03-08T03:34:57.402Z,35.40
2018-03-08T03:35:57.421Z,39.40
2018-03-08T03:36:57.440Z,37.20
2018-03-08T03:37:57.457Z,38.30
2018-03-08T03:38:57.475Z,39.00
2018-03-08T03:39:57.494Z,39.80
2018-03-08T03:40:57.514Z,41.30
2018-03-08T03:41:57.524Z,39.00
2018-03-08T03:42:57.549Z,43.40
2018-03-08T03:43:57.561Z,44.10
2018-03-08T03:44:57.585Z,40.80
2018-03-08T03:45:57.598Z,40.70
2018-03-08T03:46:57.621Z,39.20
2018-03-08T03:47:57.635Z,39.50
2018-03-08T03:48:57.658Z,38.90
2018-03-08T03:49:57.672Z,40.40
2018-03-08T03:50:57.695Z,43.90
2018-03-08T03:51:57.707Z,42.10
2018-03-08T03:52:57.732Z,38.50
2018-03-08T03:53:57.743Z,38.80
2018-03-08T03:54:57.767Z,38.40
2018-03-08T03:55:57.781Z,40.70
2018-03-08T03:56:57.806Z,42.20
2018-03-08T03:57:57.817Z,41.00
2018-03-08T03:58:57.835Z,41.30
2018-03-08T03:59:57.862Z,42.20
2018-03-08T04:00:57.872Z,43.30
2018-03-08T04:01:57.897Z,40.20
2018-03-08T04:02:57.909Z,40.30
2018-03-08T04:03:57.933Z,39.40
2018-03-08T04:04:57.945Z,37.00
2018-03-08T04:05:57.969Z,34.70
2018-03-08T04:06:57.983Z,34.00
2018-03-08T04:07:58.006Z,34.50
2018-03-08T04:08:58.019Z,33.10
2018-03-08T04:09:58.042Z,33.20
2018-03-08T04:10:58.055Z,30.70
2018-03-08T04:11:58.079Z,36.60
2018-03-08T04:12:58.097Z,35.60
2018-03-08T04:13:58.116Z,33.50
2018-03-08T04:14:58.128Z,38.80
2018-03-08T04:15:58.153Z,36.70
2018-03-08T04:16:58.165Z,37.70
2018-03-08T04:17:58.188Z,37.60
2018-03-08T04:18:58.201Z,33.80
2018-03-08T04:19:58.225Z,35.30
2018-03-08T04:20:58.241Z,30.30
2018-03-08T04:21:58.263Z,29.10
2018-03-08T04:22:58.274Z,31.30
2018-03-08T04:23:58.301Z,34.70
2018-03-08T04:24:58.317Z,38.20
2018-03-08T04:25:58.330Z,34.00
2018-03-08T04:26:58.347Z,36.00
2018-03-08T04:27:58.376Z,32.20
2018-03-08T04:28:58.395Z,32.80
2018-03-08T04:29:58.402Z,33.80
2018-03-08T04:30:58.420Z,30.80
2018-03-08T04:31:58.446Z,30.10
2018-03-08T04:32:58.463Z,31.50
2018-03-08T04:33:58.476Z,26.00
2018-03-08T04:34:58.493Z,28.40
2018-03-08T04:35:58.518Z,28.50
2018-03-08T04:36:58.536Z,28.40
2018-03-08T04:37:58.548Z,31.60
2018-03-08T04:38:58.566Z,30.80
2018-03-08T04:39:58.590Z,26.60
2018-03-08T04:40:58.609Z,27.00
2018-03-08T04:41:58.620Z,25.70
2018-03-08T04:42:58.639Z,23.90
2018-03-08T04:43:58.664Z,23.20
2018-03-08T04:44:58.683Z,19.00
2018-03-08T04:45:58.694Z,23.00
2018-03-08T04:46:58.713Z,25.90
2018-03-08T04:47:58.737Z,22.80
2018-03-08T04:48:58.757Z,18.50
2018-03-08T04:49:58.766Z,22.00
2018-03-08T04:50:58.785Z,24.80
2018-03-08T04:51:58.809Z,23.40
2018-03-08T04:52:58.826Z,22.10
2018-03-08T04:53:58.839Z,22.10
2018-03-08T04:54:58.865Z,22.60
2018-03-08T04:55:58.876Z,23.20
2018-03-08T04:56:58.901Z,22.90
2018-03-08T04:57:58.912Z,22.50
2018-03-08T04:58:58.937Z,23.00
2018-03-08T04:59:58.949Z,21.30
2018-03-08T05:00:58.973Z,21.80
2018-03-08T05:01:58.992Z,22.20
2018-03-08T05:02:59.009Z,22.60
2018-03-08T05:03:59.021Z,25.80
2018-03-08T05:04:59.046Z,25.30
2018-03-08T05:05:59.057Z,24.20
2018-03-08T05:06:59.082Z,23.80
2018-03-08T05:07:59.094Z,21.70
2018-03-08T05:08:59.125Z,25.80
2018-03-08T05:09:59.133Z,26.40
2018-03-08T05:10:59.153Z,25.10
2018-03-08T05:11:59.167Z,23.80
2018-03-08T05:12:59.186Z,23.20
2018-03-08T05:13:59.210Z,25.40
2018-03-08T05:14:59.226Z,23.10
2018-03-08T05:15:59.240Z,20.30
2018-03-08T05:16:59.260Z,24.20
2018-03-08T05:17:59.283Z,22.40
2018-03-08T05:18:59.297Z,24.40
2018-03-08T05:19:59.319Z,25.60
2018-03-08T05:20:59.332Z,24.40
2018-03-08T05:21:59.353Z,23.70
2018-03-08T05:22:59.375Z,26.60
2018-03-08T05:23:59.391Z,27.00
2018-03-08T05:24:59.409Z,27.00
2018-03-08T05:25:59.422Z,25.10
2018-03-08T05:26:59.446Z,24.90
2018-03-08T05:27:59.458Z,25.10
2018-03-08T05:28:59.483Z,25.30
2018-03-08T05:29:59.494Z,25.70
2018-03-08T05:30:59.520Z,24.50
2018-03-08T05:31:59.532Z,25.80
2018-03-08T05:32:59.556Z,26.50
2018-03-08T05:33:59.568Z,29.10
2018-03-08T05:34:59.588Z,26.50
2018-03-08T05:35:59.610Z,23.70
2018-03-08T05:36:59.633Z,26.60
2018-03-08T05:37:59.645Z,28.60
2018-03-08T05:38:59.669Z,24.90
2018-03-08T05:39:59.739Z,26.50
2018-03-08T05:40:59.701Z,24.50
2018-03-08T05:41:59.720Z,21.20
2018-03-08T05:42:59.733Z,20.20
2018-03-08T05:43:59.757Z,22.00
2018-03-08T05:44:59.771Z,20.40
2018-03-08T05:45:59.792Z,21.50
2018-03-08T05:46:59.805Z,21.20
2018-03-08T05:47:59.829Z,23.60
2018-03-08T05:48:59.841Z,22.90
2018-03-08T05:49:59.868Z,21.50
2018-03-08T05:50:59.879Z,20.50
2018-03-08T05:51:59.897Z,19.60
2018-03-08T05:52:59.918Z,25.20
2018-03-08T05:53:59.932Z,19.70
2018-03-08T05:54:59.950Z,20.00
2018-03-08T05:55:59.976Z,22.10
2018-03-08T05:57:00.010Z,23.00
2018-03-08T05:58:00.004Z,21.90
2018-03-08T05:59:00.031Z,21.80
2018-03-08T06:00:00.043Z,21.80
2018-03-08T06:01:00.061Z,21.80
2018-03-08T06:02:00.085Z,21.50
2018-03-08T06:03:00.102Z,19.10
2018-03-08T06:04:00.116Z,21.60
2018-03-08T06:05:00.135Z,23.90
2018-03-08T06:06:00.157Z,21.20
2018-03-08T06:07:00.177Z,17.70
2018-03-08T06:08:00.194Z,20.10
2018-03-08T06:09:00.207Z,19.10
2018-03-08T06:10:00.227Z,18.70
2018-03-08T06:11:00.249Z,17.40
2018-03-08T06:12:00.261Z,19.80
2018-03-08T06:13:00.285Z,19.70
2018-03-08T06:14:00.298Z,18.60
2018-03-08T06:15:00.322Z,17.80
2018-03-08T06:16:00.336Z,17.90
2018-03-08T06:17:00.359Z,17.30
2018-03-08T06:18:00.375Z,19.20
2018-03-08T06:19:00.395Z,15.50
2018-03-08T06:20:00.409Z,17.70
2018-03-08T06:21:00.427Z,18.00
2018-03-08T06:22:00.452Z,16.40
2018-03-08T06:23:00.462Z,17.30
2018-03-08T06:24:00.490Z,14.40
2018-03-08T06:25:00.506Z,14.50
2018-03-08T06:26:00.524Z,12.60
2018-03-08T06:27:00.541Z,12.40
2018-03-08T06:28:00.561Z,13.70
2018-03-08T06:29:00.574Z,15.30
2018-03-08T06:30:00.595Z,13.70
2018-03-08T06:31:00.617Z,13.00
2018-03-08T06:32:00.629Z,13.30
2018-03-08T06:33:00.651Z,13.70
2018-03-08T06:34:00.666Z,13.20
2018-03-08T06:35:00.689Z,14.40
2018-03-08T06:36:00.702Z,15.40
2018-03-08T06:37:00.726Z,16.70
2018-03-08T06:38:00.738Z,16.10
2018-03-08T06:39:00.786Z,16.90
2018-03-08T06:40:00.775Z,17.20
2018-03-08T06:41:00.793Z,15.80
2018-03-08T06:42:00.810Z,15.40
2018-03-08T06:43:00.830Z,16.50
2018-03-08T06:44:00.849Z,16.30
2018-03-08T06:45:00.872Z,15.20
2018-03-08T06:46:00.885Z,14.90
2018-03-08T06:47:00.908Z,15.80
2018-03-08T06:48:00.928Z,15.50
2018-03-08T06:49:00.941Z,15.00
2018-03-08T06:50:00.964Z,14.50
2018-03-08T06:51:00.976Z,12.60
2018-03-08T06:52:01.032Z,13.80
2018-03-08T06:53:01.020Z,12.10
2018-03-08T06:54:01.038Z,12.60
2018-03-08T06:55:01.057Z,12.50
2018-03-08T06:56:01.074Z,12.40
2018-03-08T06:57:01.088Z,12.00
2018-03-08T06:58:01.106Z,13.50
2018-03-08T06:59:01.130Z,13.10
2018-03-08T07:00:01.143Z,13.20
2018-03-08T07:01:01.169Z,11.90
2018-03-08T07:02:01.178Z,12.80
2018-03-08T07:03:01.203Z,13.60
2018-03-08T07:04:01.217Z,12.70
2018-03-08T07:05:01.235Z,13.30
2018-03-08T07:06:01.261Z,13.90
2018-03-08T07:07:01.276Z,14.80
2018-03-08T07:08:01.290Z,13.80
2018-03-08T07:09:01.308Z,12.70
2018-03-08T07:10:01.332Z,11.50
2018-03-08T07:11:01.372Z,11.80
2018-03-08T07:12:01.366Z,11.30
2018-03-08T07:13:01.388Z,11.80
2018-03-08T07:14:01.400Z,12.40
2018-03-08T07:15:01.418Z,12.20
2018-03-08T07:16:01.444Z,10.50
2018-03-08T07:18:01.479Z,10.00
2018-03-08T07:19:01.497Z,9.10
2018-03-08T07:20:01.513Z,9.50
2018-03-08T07:21:01.536Z,9.00
2018-03-08T07:22:01.554Z,8.10
2018-03-08T07:23:01.567Z,7.90
2018-03-08T07:24:01.586Z,7.60
2018-03-08T07:25:01.610Z,7.50
2018-03-08T07:26:01.627Z,7.20
2018-03-08T07:27:01.642Z,6.50
2018-03-08T07:28:01.659Z,8.10
2018-03-08T07:29:01.693Z,7.60
2018-03-08T07:30:01.703Z,7.60
2018-03-08T07:31:01.714Z,7.40
2018-03-08T07:32:01.750Z,6.90
2018-03-08T07:33:01.762Z,7.30
2018-03-08T07:34:01.775Z,8.00
2018-03-08T07:35:01.791Z,6.90
2018-03-08T07:36:01.812Z,7.50
2018-03-08T07:37:01.835Z,8.10
2018-03-08T07:38:01.849Z,7.00
2018-03-08T07:39:01.862Z,6.20
2018-03-08T07:40:01.885Z,6.00
2018-03-08T07:41:01.941Z,6.10
2018-03-08T07:42:01.922Z,5.90
2018-03-08T07:43:01.936Z,6.50
2018-03-08T07:44:01.961Z,5.60
2018-03-08T07:45:02.002Z,5.90
2018-03-08T07:46:01.996Z,5.10
2018-03-08T07:47:02.009Z,5.30
2018-03-08T07:48:02.034Z,5.70
2018-03-08T07:49:02.048Z,5.60
2018-03-08T07:50:02.071Z,5.30
2018-03-08T07:51:02.084Z,5.60
2018-03-08T07:52:02.103Z,5.40
2018-03-08T07:53:02.127Z,5.50
2018-03-08T07:54:02.138Z,6.50
2018-03-08T07:55:02.166Z,5.50
2018-03-08T07:56:02.179Z,5.70
2018-03-08T07:57:02.201Z,4.60
2018-03-08T07:58:02.216Z,5.20
2018-03-08T07:59:02.240Z,5.50
2018-03-08T08:00:02.250Z,5.60
2018-03-08T08:01:02.281Z,5.50
2018-03-08T08:02:02.287Z,5.90
2018-03-08T08:03:02.312Z,5.20
2018-03-08T08:04:02.326Z,5.20
2018-03-08T08:05:02.370Z,6.10
2018-03-08T08:06:02.362Z,6.20
2018-03-08T08:07:02.387Z,5.00
2018-03-08T08:08:02.401Z,6.00
2018-03-08T08:09:02.428Z,6.80
2018-03-08T08:10:02.447Z,5.70
2018-03-08T08:11:02.457Z,5.20
2018-03-08T08:12:02.475Z,5.80
2018-03-08T08:13:02.500Z,5.00
2018-03-08T08:14:02.518Z,5.40
2018-03-08T08:15:02.531Z,6.30
2018-03-08T08:16:02.550Z,5.90
2018-03-08T08:17:02.575Z,5.90
2018-03-08T08:18:02.595Z,5.60
2018-03-08T08:19:02.607Z,5.10
2018-03-08T08:20:02.626Z,5.60
2018-03-08T08:21:02.685Z,5.30
2018-03-08T08:22:02.670Z,5.60
2018-03-08T08:23:02.684Z,5.30
2018-03-08T08:24:02.703Z,6.00
2018-03-08T08:25:02.729Z,5.20
2018-03-08T08:26:02.748Z,5.30
2018-03-08T08:27:02.763Z,5.00
2018-03-08T08:28:02.783Z,5.30
2018-03-08T08:29:02.809Z,4.70
2018-03-08T08:30:02.830Z,5.60
2018-03-08T08:31:02.846Z,5.70
2018-03-08T08:32:02.873Z,5.30
2018-03-08T08:33:02.890Z,5.20
2018-03-08T08:34:02.917Z,5.70
2018-03-08T08:35:02.934Z,5.20
2018-03-08T08:36:02.964Z,4.90
2018-03-08T08:37:02.982Z,5.20
2018-03-08T08:38:03.009Z,5.70
2018-03-08T08:39:03.028Z,5.40
2018-03-08T08:40:03.058Z,4.70
2018-03-08T08:41:03.076Z,4.80
2018-03-08T08:42:03.106Z,5.40
2018-03-08T08:43:03.125Z,5.80
2018-03-08T08:44:03.161Z,5.30
2018-03-08T08:45:03.174Z,5.80
2018-03-08T08:46:03.205Z,5.10
2018-03-08T08:47:03.225Z,5.40
2018-03-08T08:48:03.250Z,5.60
2018-03-08T08:49:03.282Z,5.20
2018-03-08T08:50:03.307Z,5.30
2018-03-08T08:51:03.333Z,5.70
2018-03-08T08:52:03.353Z,5.70
2018-03-08T08:53:03.386Z,6.00
2018-03-08T08:54:03.405Z,6.10
2018-03-08T08:55:03.436Z,5.70
2018-03-08T08:56:03.460Z,5.70
2018-03-08T08:57:03.489Z,5.30
2018-03-08T08:58:03.509Z,5.80
2018-03-08T08:59:03.541Z,5.40
2018-03-08T09:00:03.562Z,5.10
2018-03-08T09:01:03.594Z,5.90
2018-03-08T09:02:03.615Z,5.70
2018-03-08T09:03:03.651Z,5.30
2018-03-08T09:04:03.668Z,5.40
2018-03-08T09:05:03.700Z,5.20
2018-03-08T09:06:03.727Z,5.40
2018-03-08T09:07:03.747Z,5.30
2018-03-08T09:08:03.776Z,5.50
2018-03-08T09:09:03.808Z,5.30
2018-03-08T09:10:03.834Z,5.10
2018-03-08T09:11:03.856Z,5.70
2018-03-08T09:12:03.884Z,5.60
2018-03-08T09:13:03.918Z,5.80
2018-03-08T09:14:03.945Z,6.20
2018-03-08T09:15:03.966Z,5.80
2018-03-08T09:16:04.014Z,5.30
2018-03-08T09:17:04.028Z,5.20
2018-03-08T09:18:04.055Z,5.70
2018-03-08T09:19:04.078Z,5.40
2018-03-08T09:20:04.110Z,5.30
2018-03-08T09:21:04.135Z,6.00
2018-03-08T09:22:04.163Z,5.40
2018-03-08T09:23:04.196Z,6.00
2018-03-08T09:24:04.225Z,5.50
2018-03-08T09:25:04.248Z,5.50
2018-03-08T09:26:04.275Z,5.90
2018-03-08T09:27:04.310Z,5.20
2018-03-08T09:28:04.340Z,5.40
2018-03-08T09:29:04.370Z,5.30
2018-03-08T09:30:04.392Z,6.00
2018-03-08T09:31:04.425Z,5.90
2018-03-08T09:32:04.454Z,5.80
2018-03-08T09:33:04.481Z,5.00
2018-03-08T09:34:04.505Z,5.80
2018-03-08T09:35:04.535Z,5.60
2018-03-08T09:36:04.567Z,5.50
2018-03-08T09:37:04.599Z,5.30
2018-03-08T09:38:04.620Z,5.20
2018-03-08T09:39:04.656Z,5.70
2018-03-08T09:40:04.681Z,5.90
2018-03-08T09:41:04.715Z,5.40
2018-03-08T09:42:04.735Z,5.60
2018-03-08T09:43:04.769Z,5.80
2018-03-08T09:44:04.792Z,4.90
2018-03-08T09:45:04.820Z,5.40
2018-03-08T09:46:04.853Z,5.30
2018-03-08T09:47:04.875Z,5.60
2018-03-08T09:48:04.905Z,5.70
2018-03-08T09:49:04.937Z,5.90
2018-03-08T09:50:04.964Z,6.00
2018-03-08T09:51:04.991Z,5.70
2018-03-08T09:52:05.018Z,5.70
2018-03-08T09:53:05.042Z,5.40
2018-03-08T09:54:05.068Z,6.00
2018-03-08T09:55:05.104Z,5.50
2018-03-08T09:56:05.129Z,5.40
2018-03-08T09:57:05.149Z,5.70
2018-03-08T09:58:05.176Z,5.10
2018-03-08T09:59:05.318Z,5.80
2018-03-08T10:00:05.236Z,5.60
2018-03-08T10:01:05.262Z,5.60
2018-03-08T10:02:05.290Z,6.00
2018-03-08T10:03:05.310Z,5.60
2018-03-08T10:04:05.343Z,4.80
2018-03-08T10:05:05.364Z,5.40
2018-03-08T10:06:05.398Z,6.30
2018-03-08T10:07:05.430Z,5.80
2018-03-08T10:08:05.451Z,6.20
2018-03-08T10:09:05.471Z,5.60
2018-03-08T10:10:05.499Z,5.70
2018-03-08T10:11:05.530Z,5.60
2018-03-08T10:12:05.557Z,4.90
2018-03-08T10:13:05.576Z,5.30
2018-03-08T10:14:05.602Z,5.90
2018-03-08T10:15:05.634Z,4.90
2018-03-08T10:16:05.653Z,5.60
2018-03-08T10:17:05.680Z,5.50
2018-03-08T10:18:05.704Z,5.60
2018-03-08T10:19:05.736Z,6.00
2018-03-08T10:20:05.756Z,5.90
2018-03-08T10:21:05.787Z,6.10
2018-03-08T10:22:05.803Z,6.10
2018-03-08T10:23:05.831Z,6.10
2018-03-08T10:24:05.858Z,6.10
2018-03-08T10:25:05.878Z,5.30
2018-03-08T10:26:05.909Z,6.20
2018-03-08T10:27:05.925Z,6.30
2018-03-08T10:28:05.953Z,6.00
2018-03-08T10:29:05.973Z,6.20
2018-03-08T10:30:06.003Z,5.50
2018-03-08T10:31:06.017Z,5.60
2018-03-08T10:32:06.045Z,5.70
2018-03-08T10:33:06.063Z,5.90
2018-03-08T10:34:06.085Z,6.10
2018-03-08T10:35:06.109Z,5.30
2018-03-08T10:36:06.132Z,5.90
2018-03-08T10:37:06.155Z,5.80
2018-03-08T10:38:06.183Z,5.80
2018-03-08T10:40:06.226Z,5.70
2018-03-08T10:41:06.319Z,5.20
2018-03-08T10:42:06.272Z,6.10
2018-03-08T10:43:06.298Z,5.90
2018-03-08T10:44:06.315Z,5.60
2018-03-08T10:45:06.351Z,5.30
2018-03-08T10:46:06.361Z,5.30
2018-03-08T10:47:06.389Z,5.50
2018-03-08T10:48:06.408Z,5.20
2018-03-08T10:49:06.437Z,5.40
2018-03-08T10:50:06.454Z,5.50
2018-03-08T10:51:06.482Z,4.80
2018-03-08T10:52:06.503Z,5.10
2018-03-08T10:53:06.529Z,5.40
2018-03-08T10:54:06.544Z,5.00
2018-03-08T10:55:06.568Z,5.00
2018-03-08T10:56:06.596Z,5.40
2018-03-08T10:57:06.612Z,5.00
2018-03-08T10:58:06.635Z,6.10
2018-03-08T10:59:06.663Z,5.00
2018-03-08T11:00:06.685Z,4.80
2018-03-08T11:01:06.702Z,5.00
2018-03-08T11:02:06.725Z,4.60
2018-03-08T11:03:07.032Z,4.90
2018-03-08T11:04:06.775Z,4.90
2018-03-08T11:05:06.798Z,5.00
2018-03-08T11:06:06.813Z,4.70
2018-03-08T11:07:06.842Z,5.30
2018-03-08T11:08:06.866Z,5.30
2018-03-08T11:09:06.881Z,4.50
2018-03-08T11:10:06.902Z,5.20
2018-03-08T11:11:06.925Z,4.90
2018-03-08T11:12:06.972Z,4.00
2018-03-08T11:13:06.967Z,4.50
2018-03-08T11:14:06.989Z,5.20
2018-03-08T11:15:07.051Z,4.20
2018-03-08T11:16:07.067Z,5.10
2018-03-08T11:17:07.054Z,4.10
2018-03-08T11:18:07.073Z,4.70
2018-03-08T11:19:07.102Z,5.10
2018-03-08T11:20:07.124Z,5.40
2018-03-08T11:21:07.147Z,4.70
2018-03-08T11:22:07.165Z,4.60
2018-03-08T11:23:07.181Z,5.20
2018-03-08T11:24:07.209Z,5.30
2018-03-08T11:25:07.226Z,5.00
2018-03-08T11:26:07.251Z,4.50
2018-03-08T11:27:07.272Z,5.10
2018-03-08T11:28:07.294Z,5.60
2018-03-08T11:29:07.311Z,5.50
2018-03-08T11:30:07.335Z,5.60
2018-03-08T11:31:07.352Z,4.60
2018-03-08T11:32:07.379Z,5.00
2018-03-08T11:33:07.394Z,5.00
2018-03-08T11:34:07.422Z,5.10
2018-03-08T11:35:07.435Z,4.60
2018-03-08T11:36:07.459Z,5.60
2018-03-08T11:37:07.484Z,4.90
2018-03-08T11:38:07.504Z,5.40
2018-03-08T11:39:07.519Z,5.10
2018-03-08T11:40:07.543Z,5.30
2018-03-08T11:41:07.567Z,4.70
2018-03-08T11:42:09.220Z,5.60
2018-03-08T11:43:07.605Z,5.50
2018-03-08T11:44:08.903Z,5.60
2018-03-08T11:45:07.653Z,6.00
2018-03-08T11:46:07.666Z,5.20
2018-03-08T11:47:07.692Z,5.60
2018-03-08T11:48:07.707Z,5.30
2018-03-08T11:49:07.736Z,5.20
2018-03-08T11:50:07.750Z,5.00
2018-03-08T11:51:07.776Z,5.60
2018-03-08T11:52:07.798Z,4.90
2018-03-08T11:53:09.395Z,5.50
2018-03-08T11:54:07.834Z,5.40
2018-03-08T11:55:07.861Z,5.50
2018-03-08T11:56:07.881Z,5.20
2018-03-08T11:57:07.897Z,5.60
2018-03-08T11:58:07.917Z,5.20
2018-03-08T11:59:07.947Z,5.20
2018-03-08T12:00:07.961Z,5.10
2018-03-08T12:01:07.990Z,5.00
2018-03-08T12:02:08.007Z,4.70
2018-03-08T12:03:08.023Z,5.00
2018-03-08T12:04:08.044Z,4.20
2018-03-08T12:05:08.072Z,4.60
2018-03-08T12:06:08.092Z,5.30
2018-03-08T12:07:08.109Z,4.60
2018-03-08T12:08:08.135Z,4.60
2018-03-08T12:09:08.152Z,4.50
2018-03-08T12:10:08.178Z,4.10
2018-03-08T12:11:08.194Z,4.40
2018-03-08T12:12:08.222Z,4.50
2018-03-08T12:13:08.237Z,4.50
2018-03-08T12:14:08.265Z,4.40
2018-03-08T12:15:08.281Z,4.30
2018-03-08T12:16:08.303Z,4.70
2018-03-08T12:17:08.372Z,3.80
2018-03-08T12:18:08.350Z,4.70
2018-03-08T12:19:08.366Z,4.30
2018-03-08T12:20:08.388Z,3.80
2018-03-08T12:21:08.418Z,4.10
2018-03-08T12:22:08.438Z,3.90
2018-03-08T12:23:08.474Z,3.70
2018-03-08T12:24:08.474Z,3.60
2018-03-08T12:25:08.502Z,4.00
2018-03-08T12:26:08.518Z,4.00
2018-03-08T12:27:08.544Z,3.60
2018-03-08T12:28:08.580Z,4.30
2018-03-08T12:29:08.587Z,4.10
2018-03-08T12:30:08.604Z,4.00
2018-03-08T12:31:08.629Z,4.00
2018-03-08T12:32:08.654Z,4.00
2018-03-08T12:33:08.666Z,3.50
2018-03-08T12:34:08.692Z,3.90
2018-03-08T12:35:08.707Z,3.60
2018-03-08T12:36:08.735Z,3.50
2018-03-08T12:37:08.750Z,4.10
2018-03-08T12:38:08.777Z,3.70
2018-03-08T12:39:08.792Z,3.70
2018-03-08T12:40:08.814Z,3.80
2018-03-08T12:41:08.840Z,3.90
2018-03-08T12:42:08.856Z,3.60
2018-03-08T12:43:08.881Z,3.60
2018-03-08T12:44:08.897Z,3.60
2018-03-08T12:45:08.924Z,3.50
2018-03-08T12:46:08.939Z,3.30
2018-03-08T12:47:08.966Z,3.00
2018-03-08T12:48:08.982Z,2.80
2018-03-08T12:49:09.009Z,3.40
2018-03-08T12:50:09.024Z,3.10
2018-03-08T12:51:09.049Z,2.90
2018-03-08T12:52:09.065Z,3.50
2018-03-08T12:53:09.095Z,3.50
2018-03-08T12:54:09.105Z,3.30
2018-03-08T12:55:09.132Z,3.00
2018-03-08T12:56:09.149Z,3.30
2018-03-08T12:57:09.178Z,3.30
2018-03-08T12:58:09.194Z,3.20
2018-03-08T12:59:09.214Z,3.10
2018-03-08T13:00:09.230Z,3.00
2018-03-08T13:01:09.258Z,3.20
2018-03-08T13:02:09.277Z,3.40
2018-03-08T13:03:09.292Z,3.40
2018-03-08T13:04:09.313Z,3.10
2018-03-08T13:05:09.340Z,3.50
2018-03-08T13:06:09.359Z,3.30